sensor_id;sensor_type;location;lat;lon;timestamp;temperature;humidity
19017;DHT22;9641;51.494;6.670;2023-04-25T00:02:21;6.70;99.90
19017;DHT22;9641;51.494;6.670;2023-04-25T00:04:48;6.70;99.90
19017;DHT22;9641;51.494;6.670;2023-04-25T00:07:15;6.70;99.90
19017;DHT22;9641;51.494;6.670;2023-04-25T00:09:42;6.70;99.90
19017;DHT22;9641;51.494;6.670;2023-04-25T00:12:10;6.60;99.90
19017;DHT22;9641;51.494;6.670;2023-04-25T00:14:38;6.60;99.90
19017;DHT22;9641;51.494;6.670;2023-04-25T00:17:04;6.60;99.90
19017;DHT22;9641;51.494;6.670;2023-04-25T00:19:31;6.50;99.90
19017;DHT22;9641;51.494;6.670;2023-04-25T00:22:00;6.50;99.90
19017;DHT22;9641;51.494;6.670;2023-04-25T00:24:27;6.50;99.90
19017;DHT22;9641;51.494;6.670;2023-04-25T00:26:54;6.40;99.90
19017;DHT22;9641;51.494;6.670;2023-04-25T00:29:22;6.40;99.90
19017;DHT22;9641;51.494;6.670;2023-04-25T00:31:49;6.30;99.90
19017;DHT22;9641;51.494;6.670;2023-04-25T00:34:16;6.20;99.90
19017;DHT22;9641;51.494;6.670;2023-04-25T00:36:43;6.10;99.90
19017;DHT22;9641;51.494;6.670;2023-04-25T00:39:12;6.10;99.90
19017;DHT22;9641;51.494;6.670;2023-04-25T00:41:39;6.10;99.90
19017;DHT22;9641;51.494;6.670;2023-04-25T00:44:09;6.10;99.90
19017;DHT22;9641;51.494;6.670;2023-04-25T00:46:38;6.20;99.90
19017;DHT22;9641;51.494;6.670;2023-04-25T00:49:06;6.20;99.90
19017;DHT22;9641;51.494;6.670;2023-04-25T00:51:33;6.30;99.90
19017;DHT22;9641;51.494;6.670;2023-04-25T00:54:00;6.40;99.90
19017;DHT22;9641;51.494;6.670;2023-04-25T00:56:27;6.50;99.90
19017;DHT22;9641;51.494;6.670;2023-04-25T00:58:55;6.60;99.90
19017;DHT22;9641;51.494;6.670;2023-04-25T01:01:23;6.70;99.90
19017;DHT22;9641;51.494;6.670;2023-04-25T01:03:53;6.60;99.90
19017;DHT22;9641;51.494;6.670;2023-04-25T01:06:21;6.70;99.90
19017;DHT22;9641;51.494;6.670;2023-04-25T01:08:49;6.70;99.90
19017;DHT22;9641;51.494;6.670;2023-04-25T01:11:16;6.70;99.90
19017;DHT22;9641;51.494;6.670;2023-04-25T01:13:44;6.80;99.90
19017;DHT22;9641;51.494;6.670;2023-04-25T01:16:11;6.90;99.90
19017;DHT22;9641;51.494;6.670;2023-04-25T01:18:39;6.90;99.90
19017;DHT22;9641;51.494;6.670;2023-04-25T01:21:09;7.00;99.90
19017;DHT22;9641;51.494;6.670;2023-04-25T01:23:37;7.00;99.90
19017;DHT22;9641;51.494;6.670;2023-04-25T01:26:05;7.00;99.90
19017;DHT22;9641;51.494;6.670;2023-04-25T01:28:34;7.00;99.90
19017;DHT22;9641;51.494;6.670;2023-04-25T01:31:01;7.00;99.90
19017;DHT22;9641;51.494;6.670;2023-04-25T01:33:29;7.00;99.90
19017;DHT22;9641;51.494;6.670;2023-04-25T01:35:56;7.00;99.90
19017;DHT22;9641;51.494;6.670;2023-04-25T01:38:24;6.90;99.90
19017;DHT22;9641;51.494;6.670;2023-04-25T01:40:54;6.90;99.90
19017;DHT22;9641;51.494;6.670;2023-04-25T01:43:21;6.90;99.90
19017;DHT22;9641;51.494;6.670;2023-04-25T01:45:49;6.90;99.90
19017;DHT22;9641;51.494;6.670;2023-04-25T01:48:17;6.90;99.90
19017;DHT22;9641;51.494;6.670;2023-04-25T01:50:46;6.90;99.90
19017;DHT22;9641;51.494;6.670;2023-04-25T01:53:13;6.90;99.90
19017;DHT22;9641;51.494;6.670;2023-04-25T01:55:44;6.90;99.90
19017;DHT22;9641;51.494;6.670;2023-04-25T01:58:14;6.80;99.90
19017;DHT22;9641;51.494;6.670;2023-04-25T02:01:00;6.80;99.90
19017;DHT22;9641;51.494;6.670;2023-04-25T02:03:34;6.70;99.90
19017;DHT22;9641;51.494;6.670;2023-04-25T02:06:05;6.70;99.90
19017;DHT22;9641;51.494;6.670;2023-04-25T02:08:35;6.80;99.90
19017;DHT22;9641;51.494;6.670;2023-04-25T02:11:05;6.80;99.90
19017;DHT22;9641;51.494;6.670;2023-04-25T02:13:39;6.80;99.90
19017;DHT22;9641;51.494;6.670;2023-04-25T02:16:24;6.90;99.90
19017;DHT22;9641;51.494;6.670;2023-04-25T02:18:51;6.90;99.90
19017;DHT22;9641;51.494;6.670;2023-04-25T02:21:18;6.90;99.90
19017;DHT22;9641;51.494;6.670;2023-04-25T02:23:45;6.80;99.90
19017;DHT22;9641;51.494;6.670;2023-04-25T02:26:15;6.80;99.90
19017;DHT22;9641;51.494;6.670;2023-04-25T02:28:42;6.70;99.90
19017;DHT22;9641;51.494;6.670;2023-04-25T02:31:09;6.70;99.90
19017;DHT22;9641;51.494;6.670;2023-04-25T02:33:36;6.70;99.90
19017;DHT22;9641;51.494;6.670;2023-04-25T02:36:06;6.70;99.90
19017;DHT22;9641;51.494;6.670;2023-04-25T02:38:33;6.60;99.90
19017;DHT22;9641;51.494;6.670;2023-04-25T02:41:00;6.60;99.90
19017;DHT22;9641;51.494;6.670;2023-04-25T02:43:29;6.70;99.90
19017;DHT22;9641;51.494;6.670;2023-04-25T02:45:56;6.70;99.90
19017;DHT22;9641;51.494;6.670;2023-04-25T02:48:23;6.70;99.90
19017;DHT22;9641;51.494;6.670;2023-04-25T02:50:50;6.70;99.90
19017;DHT22;9641;51.494;6.670;2023-04-25T02:53:17;6.70;99.90
19017;DHT22;9641;51.494;6.670;2023-04-25T02:55:48;6.60;99.90
19017;DHT22;9641;51.494;6.670;2023-04-25T02:58:15;6.60;99.90
19017;DHT22;9641;51.494;6.670;2023-04-25T03:00:50;6.70;99.90
19017;DHT22;9641;51.494;6.670;2023-04-25T03:03:17;6.70;99.90
19017;DHT22;9641;51.494;6.670;2023-04-25T03:05:47;6.60;99.90
19017;DHT22;9641;51.494;6.670;2023-04-25T03:08:17;6.60;99.90
19017;DHT22;9641;51.494;6.670;2023-04-25T03:10:45;6.70;99.90
19017;DHT22;9641;51.494;6.670;2023-04-25T03:13:14;6.60;99.90
19017;DHT22;9641;51.494;6.670;2023-04-25T03:15:43;6.70;99.90
19017;DHT22;9641;51.494;6.670;2023-04-25T03:18:11;6.60;99.90
19017;DHT22;9641;51.494;6.670;2023-04-25T03:20:39;6.60;99.90
19017;DHT22;9641;51.494;6.670;2023-04-25T03:23:08;6.50;99.90
19017;DHT22;9641;51.494;6.670;2023-04-25T03:25:37;6.60;99.90
19017;DHT22;9641;51.494;6.670;2023-04-25T03:28:04;6.60;99.90
19017;DHT22;9641;51.494;6.670;2023-04-25T03:30:31;6.60;99.90
19017;DHT22;9641;51.494;6.670;2023-04-25T03:32:59;6.60;99.90
19017;DHT22;9641;51.494;6.670;2023-04-25T03:35:27;6.60;99.90
19017;DHT22;9641;51.494;6.670;2023-04-25T03:37:54;6.50;99.90
19017;DHT22;9641;51.494;6.670;2023-04-25T03:40:27;6.40;99.90
19017;DHT22;9641;51.494;6.670;2023-04-25T03:43:17;6.50;99.90
19017;DHT22;9641;51.494;6.670;2023-04-25T03:45:51;6.50;99.90
19017;DHT22;9641;51.494;6.670;2023-04-25T03:48:20;6.40;99.90
19017;DHT22;9641;51.494;6.670;2023-04-25T03:50:52;6.40;99.90
19017;DHT22;9641;51.494;6.670;2023-04-25T03:53:20;6.40;99.90
19017;DHT22;9641;51.494;6.670;2023-04-25T03:56:19;6.50;99.90
19017;DHT22;9641;51.494;6.670;2023-04-25T03:58:53;6.50;99.90
19017;DHT22;9641;51.494;6.670;2023-04-25T04:01:23;6.40;99.90
19017;DHT22;9641;51.494;6.670;2023-04-25T04:03:51;6.40;99.90
19017;DHT22;9641;51.494;6.670;2023-04-25T04:06:19;6.30;99.90
19017;DHT22;9641;51.494;6.670;2023-04-25T04:08:50;6.00;99.90
19017;DHT22;9641;51.494;6.670;2023-04-25T04:11:17;5.90;99.90
19017;DHT22;9641;51.494;6.670;2023-04-25T04:13:44;5.90;99.90
19017;DHT22;9641;51.494;6.670;2023-04-25T04:16:11;6.00;99.90
19017;DHT22;9641;51.494;6.670;2023-04-25T04:18:39;5.90;99.90
19017;DHT22;9641;51.494;6.670;2023-04-25T04:21:06;5.80;99.90
19017;DHT22;9641;51.494;6.670;2023-04-25T04:23:37;5.70;99.90
19017;DHT22;9641;51.494;6.670;2023-04-25T04:26:04;5.60;99.90
19017;DHT22;9641;51.494;6.670;2023-04-25T04:29:09;5.60;99.90
19017;DHT22;9641;51.494;6.670;2023-04-25T04:31:55;5.50;99.90
19017;DHT22;9641;51.494;6.670;2023-04-25T04:34:23;5.50;99.90
19017;DHT22;9641;51.494;6.670;2023-04-25T04:36:52;5.50;99.90
19017;DHT22;9641;51.494;6.670;2023-04-25T04:39:20;5.50;99.90
19017;DHT22;9641;51.494;6.670;2023-04-25T04:42:08;5.50;99.90
19017;DHT22;9641;51.494;6.670;2023-04-25T04:45:03;5.40;99.90
19017;DHT22;9641;51.494;6.670;2023-04-25T04:48:05;5.30;99.90
19017;DHT22;9641;51.494;6.670;2023-04-25T04:50:47;5.20;99.90
19017;DHT22;9641;51.494;6.670;2023-04-25T04:53:24;5.30;99.90
19017;DHT22;9641;51.494;6.670;2023-04-25T04:56:11;5.20;99.90
19017;DHT22;9641;51.494;6.670;2023-04-25T04:59:11;5.10;99.90
19017;DHT22;9641;51.494;6.670;2023-04-25T05:01:45;5.00;99.90
19017;DHT22;9641;51.494;6.670;2023-04-25T05:04:15;5.00;99.90
19017;DHT22;9641;51.494;6.670;2023-04-25T05:06:55;5.10;99.90
19017;DHT22;9641;51.494;6.670;2023-04-25T05:09:48;5.20;99.90
19017;DHT22;9641;51.494;6.670;2023-04-25T05:12:34;5.20;99.90
19017;DHT22;9641;51.494;6.670;2023-04-25T05:15:25;5.30;99.90
19017;DHT22;9641;51.494;6.670;2023-04-25T05:18:06;5.40;99.90
19017;DHT22;9641;51.494;6.670;2023-04-25T05:20:42;5.40;99.90
19017;DHT22;9641;51.494;6.670;2023-04-25T05:23:24;5.50;99.90
19017;DHT22;9641;51.494;6.670;2023-04-25T05:26:10;5.60;99.90
19017;DHT22;9641;51.494;6.670;2023-04-25T05:28:54;5.70;99.90
19017;DHT22;9641;51.494;6.670;2023-04-25T05:31:39;5.80;99.90
19017;DHT22;9641;51.494;6.670;2023-04-25T05:34:12;5.80;99.90
19017;DHT22;9641;51.494;6.670;2023-04-25T05:36:52;6.00;99.90
19017;DHT22;9641;51.494;6.670;2023-04-25T05:39:19;6.10;99.90
19017;DHT22;9641;51.494;6.670;2023-04-25T05:42:03;6.10;99.90
19017;DHT22;9641;51.494;6.670;2023-04-25T05:44:47;6.20;99.90
19017;DHT22;9641;51.494;6.670;2023-04-25T05:47:37;6.30;99.90
19017;DHT22;9641;51.494;6.670;2023-04-25T05:50:13;6.30;99.90
19017;DHT22;9641;51.494;6.670;2023-04-25T05:52:53;6.50;99.90
19017;DHT22;9641;51.494;6.670;2023-04-25T05:55:27;6.50;99.90
19017;DHT22;9641;51.494;6.670;2023-04-25T05:57:56;6.50;99.90
19017;DHT22;9641;51.494;6.670;2023-04-25T06:00:25;6.40;99.90
19017;DHT22;9641;51.494;6.670;2023-04-25T06:02:52;6.60;99.90
19017;DHT22;9641;51.494;6.670;2023-04-25T06:05:19;6.60;99.90
19017;DHT22;9641;51.494;6.670;2023-04-25T06:07:47;6.60;99.90
19017;DHT22;9641;51.494;6.670;2023-04-25T06:10:14;6.50;99.90
19017;DHT22;9641;51.494;6.670;2023-04-25T06:12:42;6.50;99.90
19017;DHT22;9641;51.494;6.670;2023-04-25T06:15:12;6.50;99.90
19017;DHT22;9641;51.494;6.670;2023-04-25T06:17:41;6.30;99.90
19017;DHT22;9641;51.494;6.670;2023-04-25T06:20:09;6.40;99.90
19017;DHT22;9641;51.494;6.670;2023-04-25T06:22:36;6.40;99.90
19017;DHT22;9641;51.494;6.670;2023-04-25T06:25:04;6.60;99.90
19017;DHT22;9641;51.494;6.670;2023-04-25T06:27:32;6.70;99.90
19017;DHT22;9641;51.494;6.670;2023-04-25T06:30:01;6.80;99.90
19017;DHT22;9641;51.494;6.670;2023-04-25T06:32:31;7.00;62.50
19017;DHT22;9641;51.494;6.670;2023-04-25T06:35:02;6.90;71.40
19017;DHT22;9641;51.494;6.670;2023-04-25T06:37:30;7.00;39.90
19017;DHT22;9641;51.494;6.670;2023-04-25T06:39:57;6.90;24.40
19017;DHT22;9641;51.494;6.670;2023-04-25T06:42:25;6.70;56.80
19017;DHT22;9641;51.494;6.670;2023-04-25T06:44:57;6.60;71.80
19017;DHT22;9641;51.494;6.670;2023-04-25T06:47:24;6.40;99.90
19017;DHT22;9641;51.494;6.670;2023-04-25T06:49:52;6.30;99.90
19017;DHT22;9641;51.494;6.670;2023-04-25T06:52:21;6.30;99.90
19017;DHT22;9641;51.494;6.670;2023-04-25T06:54:51;6.30;99.90
19017;DHT22;9641;51.494;6.670;2023-04-25T06:57:33;6.30;99.90
19017;DHT22;9641;51.494;6.670;2023-04-25T07:00:20;6.40;99.90
19017;DHT22;9641;51.494;6.670;2023-04-25T07:02:51;6.70;99.90
19017;DHT22;9641;51.494;6.670;2023-04-25T07:05:18;7.00;77.60
19017;DHT22;9641;51.494;6.670;2023-04-25T07:07:47;7.30;36.20
19017;DHT22;9641;51.494;6.670;2023-04-25T07:10:15;7.50;1.00
19017;DHT22;9641;51.494;6.670;2023-04-25T07:12:44;7.80;1.00
19017;DHT22;9641;51.494;6.670;2023-04-25T07:15:11;8.00;1.00
19017;DHT22;9641;51.494;6.670;2023-04-25T07:17:42;8.20;1.00
19017;DHT22;9641;51.494;6.670;2023-04-25T07:20:10;8.20;1.00
19017;DHT22;9641;51.494;6.670;2023-04-25T07:22:40;8.10;1.00
19017;DHT22;9641;51.494;6.670;2023-04-25T07:25:10;7.90;1.00
19017;DHT22;9641;51.494;6.670;2023-04-25T07:27:37;7.80;1.00
19017;DHT22;9641;51.494;6.670;2023-04-25T07:30:13;7.80;1.00
19017;DHT22;9641;51.494;6.670;2023-04-25T07:32:40;7.70;1.00
19017;DHT22;9641;51.494;6.670;2023-04-25T07:35:08;7.80;1.00
19017;DHT22;9641;51.494;6.670;2023-04-25T07:37:35;7.90;1.00
19017;DHT22;9641;51.494;6.670;2023-04-25T07:40:11;8.00;1.00
19017;DHT22;9641;51.494;6.670;2023-04-25T07:42:44;8.10;99.90
19017;DHT22;9641;51.494;6.670;2023-04-25T07:45:16;7.90;1.00
19017;DHT22;9641;51.494;6.670;2023-04-25T07:47:43;7.70;91.90
19017;DHT22;9641;51.494;6.670;2023-04-25T07:50:11;7.80;1.00
19017;DHT22;9641;51.494;6.670;2023-04-25T07:52:38;8.00;99.90
19017;DHT22;9641;51.494;6.670;2023-04-25T07:55:19;8.00;1.00
19017;DHT22;9641;51.494;6.670;2023-04-25T07:58:00;8.10;1.00
19017;DHT22;9641;51.494;6.670;2023-04-25T08:00:29;8.30;1.00
19017;DHT22;9641;51.494;6.670;2023-04-25T08:03:16;8.60;1.00
19017;DHT22;9641;51.494;6.670;2023-04-25T08:05:44;8.80;1.00
19017;DHT22;9641;51.494;6.670;2023-04-25T08:08:12;8.90;54.00
19017;DHT22;9641;51.494;6.670;2023-04-25T08:10:42;8.90;1.00
19017;DHT22;9641;51.494;6.670;2023-04-25T08:13:09;8.90;1.00
19017;DHT22;9641;51.494;6.670;2023-04-25T08:15:36;9.20;1.00
19017;DHT22;9641;51.494;6.670;2023-04-25T08:18:04;9.30;99.90
19017;DHT22;9641;51.494;6.670;2023-04-25T08:20:31;9.40;1.00
19017;DHT22;9641;51.494;6.670;2023-04-25T08:23:01;9.60;99.90
19017;DHT22;9641;51.494;6.670;2023-04-25T08:25:47;9.80;1.00
19017;DHT22;9641;51.494;6.670;2023-04-25T08:28:17;10.10;1.00
19017;DHT22;9641;51.494;6.670;2023-04-25T08:30:45;10.20;99.90
19017;DHT22;9641;51.494;6.670;2023-04-25T08:33:13;9.90;99.90
19017;DHT22;9641;51.494;6.670;2023-04-25T08:35:59;9.60;1.00
19017;DHT22;9641;51.494;6.670;2023-04-25T08:38:27;9.40;57.20
19017;DHT22;9641;51.494;6.670;2023-04-25T08:40:56;9.20;99.90
19017;DHT22;9641;51.494;6.670;2023-04-25T08:43:25;9.10;1.00
19017;DHT22;9641;51.494;6.670;2023-04-25T08:45:53;9.00;1.00
19017;DHT22;9641;51.494;6.670;2023-04-25T08:48:33;9.20;1.00
19017;DHT22;9641;51.494;6.670;2023-04-25T08:51:02;9.40;99.90
19017;DHT22;9641;51.494;6.670;2023-04-25T08:53:31;9.20;99.90
19017;DHT22;9641;51.494;6.670;2023-04-25T08:56:02;9.30;99.90
19017;DHT22;9641;51.494;6.670;2023-04-25T08:58:33;9.50;99.90
19017;DHT22;9641;51.494;6.670;2023-04-25T09:01:01;9.60;1.00
19017;DHT22;9641;51.494;6.670;2023-04-25T09:03:32;9.90;1.00
19017;DHT22;9641;51.494;6.670;2023-04-25T09:06:00;10.10;1.00
19017;DHT22;9641;51.494;6.670;2023-04-25T09:08:28;10.20;1.00
19017;DHT22;9641;51.494;6.670;2023-04-25T09:10:56;10.50;1.00
19017;DHT22;9641;51.494;6.670;2023-04-25T09:13:28;10.50;1.00
19017;DHT22;9641;51.494;6.670;2023-04-25T09:16:34;10.70;1.00
19017;DHT22;9641;51.494;6.670;2023-04-25T09:19:21;10.90;1.00
19017;DHT22;9641;51.494;6.670;2023-04-25T09:21:53;10.70;1.00
19017;DHT22;9641;51.494;6.670;2023-04-25T09:24:33;10.80;1.00
19017;DHT22;9641;51.494;6.670;2023-04-25T09:27:04;10.90;1.00
19017;DHT22;9641;51.494;6.670;2023-04-25T09:29:34;10.90;1.00
19017;DHT22;9641;51.494;6.670;2023-04-25T09:32:17;10.90;1.00
19017;DHT22;9641;51.494;6.670;2023-04-25T09:34:47;10.80;1.00
19017;DHT22;9641;51.494;6.670;2023-04-25T09:37:20;11.10;1.00
19017;DHT22;9641;51.494;6.670;2023-04-25T09:40:06;11.20;1.00
19017;DHT22;9641;51.494;6.670;2023-04-25T09:42:49;11.00;1.00
19017;DHT22;9641;51.494;6.670;2023-04-25T09:45:17;11.40;1.00
19017;DHT22;9641;51.494;6.670;2023-04-25T09:47:44;11.60;1.00
19017;DHT22;9641;51.494;6.670;2023-04-25T09:50:18;11.40;1.00
19017;DHT22;9641;51.494;6.670;2023-04-25T09:53:02;11.40;1.00
19017;DHT22;9641;51.494;6.670;2023-04-25T09:55:38;11.60;1.00
19017;DHT22;9641;51.494;6.670;2023-04-25T09:58:06;11.40;99.90
19017;DHT22;9641;51.494;6.670;2023-04-25T10:00:38;11.30;99.90
19017;DHT22;9641;51.494;6.670;2023-04-25T10:03:20;11.30;99.90
19017;DHT22;9641;51.494;6.670;2023-04-25T10:06:25;11.20;99.90
19017;DHT22;9641;51.494;6.670;2023-04-25T10:08:54;11.40;99.90
19017;DHT22;9641;51.494;6.670;2023-04-25T10:11:24;11.10;99.90
19017;DHT22;9641;51.494;6.670;2023-04-25T10:13:52;11.50;99.90
19017;DHT22;9641;51.494;6.670;2023-04-25T10:16:21;12.10;99.90
19017;DHT22;9641;51.494;6.670;2023-04-25T10:18:50;12.20;99.90
19017;DHT22;9641;51.494;6.670;2023-04-25T10:21:18;11.90;99.90
19017;DHT22;9641;51.494;6.670;2023-04-25T10:23:46;11.70;99.90
19017;DHT22;9641;51.494;6.670;2023-04-25T10:26:13;12.00;99.90
19017;DHT22;9641;51.494;6.670;2023-04-25T10:28:55;11.60;99.90
19017;DHT22;9641;51.494;6.670;2023-04-25T10:31:24;11.50;99.90
19017;DHT22;9641;51.494;6.670;2023-04-25T10:33:53;11.60;99.90
19017;DHT22;9641;51.494;6.670;2023-04-25T10:36:22;11.30;99.90
19017;DHT22;9641;51.494;6.670;2023-04-25T10:38:50;11.30;99.90
19017;DHT22;9641;51.494;6.670;2023-04-25T10:41:19;10.90;99.90
19017;DHT22;9641;51.494;6.670;2023-04-25T10:43:47;10.70;1.00
19017;DHT22;9641;51.494;6.670;2023-04-25T10:46:19;10.40;1.00
19017;DHT22;9641;51.494;6.670;2023-04-25T10:48:51;10.00;1.00
19017;DHT22;9641;51.494;6.670;2023-04-25T10:51:21;9.70;1.00
19017;DHT22;9641;51.494;6.670;2023-04-25T10:53:57;9.50;99.90
19017;DHT22;9641;51.494;6.670;2023-04-25T10:56:27;9.30;1.00
19017;DHT22;9641;51.494;6.670;2023-04-25T10:59:05;9.30;99.90
19017;DHT22;9641;51.494;6.670;2023-04-25T11:01:37;9.50;1.00
19017;DHT22;9641;51.494;6.670;2023-04-25T11:04:19;9.40;99.90
19017;DHT22;9641;51.494;6.670;2023-04-25T11:06:55;9.50;99.90
19017;DHT22;9641;51.494;6.670;2023-04-25T11:09:24;9.50;1.00
19017;DHT22;9641;51.494;6.670;2023-04-25T11:11:54;9.50;1.00
19017;DHT22;9641;51.494;6.670;2023-04-25T11:14:34;9.60;1.00
19017;DHT22;9641;51.494;6.670;2023-04-25T11:17:07;9.70;1.00
19017;DHT22;9641;51.494;6.670;2023-04-25T11:19:36;9.80;22.10
19017;DHT22;9641;51.494;6.670;2023-04-25T11:22:03;10.10;1.00
19017;DHT22;9641;51.494;6.670;2023-04-25T11:24:35;9.90;99.90
19017;DHT22;9641;51.494;6.670;2023-04-25T11:27:03;9.80;99.90
19017;DHT22;9641;51.494;6.670;2023-04-25T11:29:32;9.90;99.90
19017;DHT22;9641;51.494;6.670;2023-04-25T11:32:00;9.80;31.60
19017;DHT22;9641;51.494;6.670;2023-04-25T11:34:28;9.70;1.00
19017;DHT22;9641;51.494;6.670;2023-04-25T11:37:00;9.30;99.90
19017;DHT22;9641;51.494;6.670;2023-04-25T11:39:28;8.90;1.00
19017;DHT22;9641;51.494;6.670;2023-04-25T11:41:55;8.50;99.90
19017;DHT22;9641;51.494;6.670;2023-04-25T11:44:22;8.20;1.00
19017;DHT22;9641;51.494;6.670;2023-04-25T11:46:49;8.10;99.90
19017;DHT22;9641;51.494;6.670;2023-04-25T11:49:16;8.20;1.00
19017;DHT22;9641;51.494;6.670;2023-04-25T11:51:45;8.50;1.00
19017;DHT22;9641;51.494;6.670;2023-04-25T11:54:14;8.80;1.00
19017;DHT22;9641;51.494;6.670;2023-04-25T11:56:42;9.20;99.90
19017;DHT22;9641;51.494;6.670;2023-04-25T11:59:09;9.50;1.00
19017;DHT22;9641;51.494;6.670;2023-04-25T12:01:39;10.00;99.90
19017;DHT22;9641;51.494;6.670;2023-04-25T12:04:11;10.90;1.00
19017;DHT22;9641;51.494;6.670;2023-04-25T12:06:38;13.20;1.00
19017;DHT22;9641;51.494;6.670;2023-04-25T12:09:08;14.80;1.00
19017;DHT22;9641;51.494;6.670;2023-04-25T12:11:43;16.00;1.00
19017;DHT22;9641;51.494;6.670;2023-04-25T12:14:10;17.40;99.90
19017;DHT22;9641;51.494;6.670;2023-04-25T12:16:42;17.70;99.90
19017;DHT22;9641;51.494;6.670;2023-04-25T12:19:09;17.90;99.90
19017;DHT22;9641;51.494;6.670;2023-04-25T12:21:37;17.30;99.90
19017;DHT22;9641;51.494;6.670;2023-04-25T12:24:11;18.00;99.90
19017;DHT22;9641;51.494;6.670;2023-04-25T12:26:49;19.20;99.90
19017;DHT22;9641;51.494;6.670;2023-04-25T12:29:20;18.40;99.90
19017;DHT22;9641;51.494;6.670;2023-04-25T12:31:48;17.30;99.90
19017;DHT22;9641;51.494;6.670;2023-04-25T12:34:15;17.70;99.90
19017;DHT22;9641;51.494;6.670;2023-04-25T12:36:45;18.80;99.90
19017;DHT22;9641;51.494;6.670;2023-04-25T12:39:16;17.80;99.90
19017;DHT22;9641;51.494;6.670;2023-04-25T12:41:47;17.30;99.90
19017;DHT22;9641;51.494;6.670;2023-04-25T12:44:15;15.10;99.90
19017;DHT22;9641;51.494;6.670;2023-04-25T12:46:43;13.10;99.90
19017;DHT22;9641;51.494;6.670;2023-04-25T12:49:12;11.70;99.90
19017;DHT22;9641;51.494;6.670;2023-04-25T12:51:41;11.30;99.90
19017;DHT22;9641;51.494;6.670;2023-04-25T12:54:09;11.00;99.90
19017;DHT22;9641;51.494;6.670;2023-04-25T12:56:36;10.80;99.90
19017;DHT22;9641;51.494;6.670;2023-04-25T12:59:05;10.80;99.90
19017;DHT22;9641;51.494;6.670;2023-04-25T13:01:32;10.80;99.90
19017;DHT22;9641;51.494;6.670;2023-04-25T13:03:59;11.10;99.90
19017;DHT22;9641;51.494;6.670;2023-04-25T13:06:26;11.50;99.90
19017;DHT22;9641;51.494;6.670;2023-04-25T13:08:55;12.10;99.90
19017;DHT22;9641;51.494;6.670;2023-04-25T13:11:22;14.10;99.90
19017;DHT22;9641;51.494;6.670;2023-04-25T13:13:49;15.70;99.90
19017;DHT22;9641;51.494;6.670;2023-04-25T13:16:21;17.10;99.90
19017;DHT22;9641;51.494;6.670;2023-04-25T13:18:48;18.70;99.90
19017;DHT22;9641;51.494;6.670;2023-04-25T13:21:15;20.50;99.90
19017;DHT22;9641;51.494;6.670;2023-04-25T13:23:42;20.10;99.90
19017;DHT22;9641;51.494;6.670;2023-04-25T13:26:12;18.80;99.90
19017;DHT22;9641;51.494;6.670;2023-04-25T13:28:39;19.40;99.90
19017;DHT22;9641;51.494;6.670;2023-04-25T13:31:06;19.00;99.90
19017;DHT22;9641;51.494;6.670;2023-04-25T13:33:35;17.20;99.90
19017;DHT22;9641;51.494;6.670;2023-04-25T13:36:02;15.60;99.90
19017;DHT22;9641;51.494;6.670;2023-04-25T13:38:29;14.40;99.90
19017;DHT22;9641;51.494;6.670;2023-04-25T13:40:56;14.00;99.90
19017;DHT22;9641;51.494;6.670;2023-04-25T13:43:23;15.80;99.90
19017;DHT22;9641;51.494;6.670;2023-04-25T13:45:50;17.30;99.90
19017;DHT22;9641;51.494;6.670;2023-04-25T13:48:18;18.50;99.90
19017;DHT22;9641;51.494;6.670;2023-04-25T13:50:48;19.20;99.90
19017;DHT22;9641;51.494;6.670;2023-04-25T13:53:16;17.70;99.90
19017;DHT22;9641;51.494;6.670;2023-04-25T13:55:43;16.10;99.90
19017;DHT22;9641;51.494;6.670;2023-04-25T13:58:11;15.20;99.90
19017;DHT22;9641;51.494;6.670;2023-04-25T14:00:38;13.90;99.90
19017;DHT22;9641;51.494;6.670;2023-04-25T14:03:07;13.20;99.90
19017;DHT22;9641;51.494;6.670;2023-04-25T14:05:35;13.10;99.90
19017;DHT22;9641;51.494;6.670;2023-04-25T14:08:06;12.90;99.90
19017;DHT22;9641;51.494;6.670;2023-04-25T14:10:34;13.60;99.90
19017;DHT22;9641;51.494;6.670;2023-04-25T14:13:02;14.80;99.90
19017;DHT22;9641;51.494;6.670;2023-04-25T14:15:30;14.90;99.90
19017;DHT22;9641;51.494;6.670;2023-04-25T14:17:57;14.30;99.90
19017;DHT22;9641;51.494;6.670;2023-04-25T14:20:25;13.50;99.90
19017;DHT22;9641;51.494;6.670;2023-04-25T14:22:52;12.80;99.90
19017;DHT22;9641;51.494;6.670;2023-04-25T14:25:21;11.90;99.90
19017;DHT22;9641;51.494;6.670;2023-04-25T14:27:48;11.40;99.90
19017;DHT22;9641;51.494;6.670;2023-04-25T14:30:16;11.60;99.90
19017;DHT22;9641;51.494;6.670;2023-04-25T14:32:43;11.50;99.90
19017;DHT22;9641;51.494;6.670;2023-04-25T14:35:11;11.50;99.90
19017;DHT22;9641;51.494;6.670;2023-04-25T14:37:38;12.20;99.90
19017;DHT22;9641;51.494;6.670;2023-04-25T14:40:06;13.10;99.90
19017;DHT22;9641;51.494;6.670;2023-04-25T14:42:36;15.00;99.90
19017;DHT22;9641;51.494;6.670;2023-04-25T14:45:04;17.10;99.90
19017;DHT22;9641;51.494;6.670;2023-04-25T14:47:31;18.10;99.90
19017;DHT22;9641;51.494;6.670;2023-04-25T14:49:59;18.70;99.90
19017;DHT22;9641;51.494;6.670;2023-04-25T14:52:27;19.00;99.90
19017;DHT22;9641;51.494;6.670;2023-04-25T14:54:54;19.60;99.90
19017;DHT22;9641;51.494;6.670;2023-04-25T14:57:21;19.00;99.90
19017;DHT22;9641;51.494;6.670;2023-04-25T14:59:49;16.70;99.90
19017;DHT22;9641;51.494;6.670;2023-04-25T15:02:16;14.80;99.90
19017;DHT22;9641;51.494;6.670;2023-04-25T15:04:43;13.30;99.90
19017;DHT22;9641;51.494;6.670;2023-04-25T15:07:11;12.90;99.90
19017;DHT22;9641;51.494;6.670;2023-04-25T15:09:38;12.30;99.90
19017;DHT22;9641;51.494;6.670;2023-04-25T15:12:06;12.10;99.90
19017;DHT22;9641;51.494;6.670;2023-04-25T15:14:33;11.80;99.90
19017;DHT22;9641;51.494;6.670;2023-04-25T15:17:01;11.80;99.90
19017;DHT22;9641;51.494;6.670;2023-04-25T15:19:28;13.60;99.90
19017;DHT22;9641;51.494;6.670;2023-04-25T15:21:55;16.40;99.90
19017;DHT22;9641;51.494;6.670;2023-04-25T15:24:26;18.70;99.90
19017;DHT22;9641;51.494;6.670;2023-04-25T15:26:53;18.60;99.90
19017;DHT22;9641;51.494;6.670;2023-04-25T15:29:20;17.70;99.90
19017;DHT22;9641;51.494;6.670;2023-04-25T15:31:47;17.20;99.90
19017;DHT22;9641;51.494;6.670;2023-04-25T15:34:16;15.90;99.90
19017;DHT22;9641;51.494;6.670;2023-04-25T15:36:43;15.50;99.90
19017;DHT22;9641;51.494;6.670;2023-04-25T15:39:10;14.80;99.90
19017;DHT22;9641;51.494;6.670;2023-04-25T15:41:37;14.30;99.90
19017;DHT22;9641;51.494;6.670;2023-04-25T15:44:04;13.80;99.90
19017;DHT22;9641;51.494;6.670;2023-04-25T15:46:33;13.70;99.90
19017;DHT22;9641;51.494;6.670;2023-04-25T15:49:00;13.50;99.90
19017;DHT22;9641;51.494;6.670;2023-04-25T15:51:29;13.20;99.90
19017;DHT22;9641;51.494;6.670;2023-04-25T15:53:58;12.70;99.90
19017;DHT22;9641;51.494;6.670;2023-04-25T15:56:27;12.30;99.90
19017;DHT22;9641;51.494;6.670;2023-04-25T15:58:54;12.20;99.90
19017;DHT22;9641;51.494;6.670;2023-04-25T16:01:21;12.20;99.90
19017;DHT22;9641;51.494;6.670;2023-04-25T16:03:50;12.00;99.90
19017;DHT22;9641;51.494;6.670;2023-04-25T16:06:17;12.20;99.90
19017;DHT22;9641;51.494;6.670;2023-04-25T16:08:46;12.30;99.90
19017;DHT22;9641;51.494;6.670;2023-04-25T16:11:13;12.40;99.90
19017;DHT22;9641;51.494;6.670;2023-04-25T16:13:40;12.30;99.90
19017;DHT22;9641;51.494;6.670;2023-04-25T16:16:07;11.90;99.90
19017;DHT22;9641;51.494;6.670;2023-04-25T16:18:36;11.70;99.90
19017;DHT22;9641;51.494;6.670;2023-04-25T16:21:04;11.50;99.90
19017;DHT22;9641;51.494;6.670;2023-04-25T16:23:31;11.40;99.90